sensor_id;sensor_type;location;lat;lon;timestamp;P1;durP1;ratioP1;P2;durP2;ratioP2
60076;SDS011;45950;45.208;20.374;2023-06-14T00:00:44;6.78;;;3.40;;
60076;SDS011;45950;45.208;20.374;2023-06-14T00:03:14;7.00;;;3.90;;
60076;SDS011;45950;45.208;20.374;2023-06-14T00:05:42;4.47;;;3.50;;
60076;SDS011;45950;45.208;20.374;2023-06-14T00:08:11;5.97;;;4.07;;
60076;SDS011;45950;45.208;20.374;2023-06-14T00:10:43;5.90;;;4.10;;
60076;SDS011;45950;45.208;20.374;2023-06-14T00:13:11;5.32;;;4.00;;
60076;SDS011;45950;45.208;20.374;2023-06-14T00:15:37;6.45;;;4.28;;
60076;SDS011;45950;45.208;20.374;2023-06-14T00:18:06;8.63;;;5.18;;
60076;SDS011;45950;45.208;20.374;2023-06-14T00:20:32;7.25;;;4.50;;
60076;SDS011;45950;45.208;20.374;2023-06-14T00:22:59;8.18;;;4.95;;
60076;SDS011;45950;45.208;20.374;2023-06-14T00:25:26;7.90;;;5.18;;
60076;SDS011;45950;45.208;20.374;2023-06-14T00:27:53;7.68;;;5.07;;
60076;SDS011;45950;45.208;20.374;2023-06-14T00:30:21;7.32;;;4.47;;
60076;SDS011;45950;45.208;20.374;2023-06-14T00:32:52;7.38;;;5.78;;
60076;SDS011;45950;45.208;20.374;2023-06-14T00:35:19;6.25;;;5.45;;
60076;SDS011;45950;45.208;20.374;2023-06-14T00:37:46;6.57;;;4.88;;
60076;SDS011;45950;45.208;20.374;2023-06-14T00:40:12;7.38;;;4.95;;
60076;SDS011;45950;45.208;20.374;2023-06-14T00:42:39;6.93;;;4.55;;
60076;SDS011;45950;45.208;20.374;2023-06-14T00:45:06;6.57;;;4.18;;
60076;SDS011;45950;45.208;20.374;2023-06-14T00:47:35;5.22;;;3.70;;
60076;SDS011;45950;45.208;20.374;2023-06-14T00:50:03;6.75;;;3.47;;
60076;SDS011;45950;45.208;20.374;2023-06-14T00:52:33;5.57;;;3.70;;
60076;SDS011;45950;45.208;20.374;2023-06-14T00:54:59;9.10;;;4.10;;
60076;SDS011;45950;45.208;20.374;2023-06-14T00:57:27;6.03;;;3.42;;
60076;SDS011;45950;45.208;20.374;2023-06-14T00:59:55;5.80;;;3.88;;
60076;SDS011;45950;45.208;20.374;2023-06-14T01:02:21;6.43;;;4.07;;
60076;SDS011;45950;45.208;20.374;2023-06-14T01:04:50;4.13;;;3.30;;
60076;SDS011;45950;45.208;20.374;2023-06-14T01:07:20;5.22;;;3.10;;
60076;SDS011;45950;45.208;20.374;2023-06-14T01:09:54;5.65;;;3.88;;
60076;SDS011;45950;45.208;20.374;2023-06-14T01:12:24;6.13;;;3.60;;
60076;SDS011;45950;45.208;20.374;2023-06-14T01:14:51;7.43;;;3.50;;
60076;SDS011;45950;45.208;20.374;2023-06-14T01:17:20;5.57;;;3.30;;
60076;SDS011;45950;45.208;20.374;2023-06-14T01:19:48;4.28;;;3.03;;
60076;SDS011;45950;45.208;20.374;2023-06-14T01:22:16;7.22;;;3.80;;
60076;SDS011;45950;45.208;20.374;2023-06-14T01:24:44;4.57;;;3.33;;
60076;SDS011;45950;45.208;20.374;2023-06-14T01:27:11;7.38;;;3.38;;
60076;SDS011;45950;45.208;20.374;2023-06-14T01:29:38;5.35;;;3.60;;
60076;SDS011;45950;45.208;20.374;2023-06-14T01:32:10;4.88;;;3.40;;
60076;SDS011;45950;45.208;20.374;2023-06-14T01:34:37;5.18;;;3.60;;
60076;SDS011;45950;45.208;20.374;2023-06-14T01:37:04;5.40;;;3.50;;
60076;SDS011;45950;45.208;20.374;2023-06-14T01:39:31;5.38;;;3.63;;
60076;SDS011;45950;45.208;20.374;2023-06-14T01:41:59;9.77;;;3.95;;
60076;SDS011;45950;45.208;20.374;2023-06-14T01:44:26;4.15;;;3.47;;
60076;SDS011;45950;45.208;20.374;2023-06-14T01:46:53;5.18;;;3.30;;
60076;SDS011;45950;45.208;20.374;2023-06-14T01:49:20;4.35;;;3.53;;
60076;SDS011;45950;45.208;20.374;2023-06-14T01:51:47;4.35;;;3.25;;
60076;SDS011;45950;45.208;20.374;2023-06-14T01:54:13;7.18;;;3.60;;
60076;SDS011;45950;45.208;20.374;2023-06-14T01:56:40;5.60;;;3.55;;
60076;SDS011;45950;45.208;20.374;2023-06-14T01:59:08;3.85;;;3.10;;
60076;SDS011;45950;45.208;20.374;2023-06-14T02:01:34;4.30;;;2.90;;
60076;SDS011;45950;45.208;20.374;2023-06-14T02:04:01;5.78;;;3.58;;
60076;SDS011;45950;45.208;20.374;2023-06-14T02:06:28;4.40;;;3.17;;
60076;SDS011;45950;45.208;20.374;2023-06-14T02:08:54;5.47;;;3.35;;
60076;SDS011;45950;45.208;20.374;2023-06-14T02:11:21;5.70;;;3.50;;
60076;SDS011;45950;45.208;20.374;2023-06-14T02:13:47;5.50;;;3.15;;
60076;SDS011;45950;45.208;20.374;2023-06-14T02:16:15;4.93;;;3.40;;
60076;SDS011;45950;45.208;20.374;2023-06-14T02:18:42;5.22;;;4.05;;
60076;SDS011;45950;45.208;20.374;2023-06-14T02:21:09;5.57;;;4.05;;
60076;SDS011;45950;45.208;20.374;2023-06-14T02:23:36;4.30;;;3.10;;
60076;SDS011;45950;45.208;20.374;2023-06-14T02:26:02;5.45;;;3.28;;
60076;SDS011;45950;45.208;20.374;2023-06-14T02:28:29;5.13;;;3.22;;
60076;SDS011;45950;45.208;20.374;2023-06-14T02:30:55;4.95;;;3.58;;
60076;SDS011;45950;45.208;20.374;2023-06-14T02:33:23;5.90;;;3.80;;
60076;SDS011;45950;45.208;20.374;2023-06-14T02:35:50;4.65;;;3.53;;
60076;SDS011;45950;45.208;20.374;2023-06-14T02:38:17;5.82;;;3.95;;
60076;SDS011;45950;45.208;20.374;2023-06-14T02:40:44;6.85;;;3.50;;
60076;SDS011;45950;45.208;20.374;2023-06-14T02:43:11;4.45;;;3.58;;
60076;SDS011;45950;45.208;20.374;2023-06-14T02:45:44;5.72;;;3.65;;
60076;SDS011;45950;45.208;20.374;2023-06-14T02:48:11;5.18;;;3.80;;
60076;SDS011;45950;45.208;20.374;2023-06-14T02:50:38;5.88;;;3.60;;
60076;SDS011;45950;45.208;20.374;2023-06-14T02:53:05;6.88;;;4.13;;
60076;SDS011;45950;45.208;20.374;2023-06-14T02:55:32;4.35;;;3.30;;
60076;SDS011;45950;45.208;20.374;2023-06-14T02:57:58;5.10;;;3.38;;
60076;SDS011;45950;45.208;20.374;2023-06-14T03:00:26;5.05;;;3.35;;
60076;SDS011;45950;45.208;20.374;2023-06-14T03:02:55;4.50;;;3.17;;
60076;SDS011;45950;45.208;20.374;2023-06-14T03:05:21;5.00;;;3.40;;
60076;SDS011;45950;45.208;20.374;2023-06-14T03:07:50;5.15;;;3.50;;
60076;SDS011;45950;45.208;20.374;2023-06-14T03:10:19;6.35;;;3.58;;
60076;SDS011;45950;45.208;20.374;2023-06-14T03:12:48;4.30;;;3.17;;
60076;SDS011;45950;45.208;20.374;2023-06-14T03:15:16;5.53;;;3.53;;
60076;SDS011;45950;45.208;20.374;2023-06-14T03:17:43;5.75;;;3.65;;
60076;SDS011;45950;45.208;20.374;2023-06-14T03:20:10;5.00;;;3.50;;
60076;SDS011;45950;45.208;20.374;2023-06-14T03:22:44;4.85;;;3.30;;
60076;SDS011;45950;45.208;20.374;2023-06-14T03:25:14;4.07;;;3.35;;
60076;SDS011;45950;45.208;20.374;2023-06-14T03:27:41;6.25;;;3.47;;
60076;SDS011;45950;45.208;20.374;2023-06-14T03:30:08;5.55;;;3.88;;
60076;SDS011;45950;45.208;20.374;2023-06-14T03:32:34;4.43;;;3.20;;
60076;SDS011;45950;45.208;20.374;2023-06-14T03:35:01;6.72;;;3.92;;
60076;SDS011;45950;45.208;20.374;2023-06-14T03:37:40;5.47;;;4.38;;
60076;SDS011;45950;45.208;20.374;2023-06-14T03:40:06;6.55;;;3.78;;
60076;SDS011;45950;45.208;20.374;2023-06-14T03:42:35;5.07;;;3.35;;
60076;SDS011;45950;45.208;20.374;2023-06-14T03:45:01;6.18;;;3.55;;
60076;SDS011;45950;45.208;20.374;2023-06-14T03:47:28;7.28;;;3.50;;
60076;SDS011;45950;45.208;20.374;2023-06-14T03:49:54;7.35;;;4.00;;
60076;SDS011;45950;45.208;20.374;2023-06-14T03:52:21;6.18;;;4.03;;
60076;SDS011;45950;45.208;20.374;2023-06-14T03:54:48;4.63;;;3.60;;
60076;SDS011;45950;45.208;20.374;2023-06-14T03:57:15;6.05;;;3.78;;
60076;SDS011;45950;45.208;20.374;2023-06-14T03:59:43;5.90;;;4.15;;
60076;SDS011;45950;45.208;20.374;2023-06-14T04:02:10;7.22;;;4.65;;
60076;SDS011;45950;45.208;20.374;2023-06-14T04:04:40;6.13;;;4.13;;
60076;SDS011;45950;45.208;20.374;2023-06-14T04:07:09;6.38;;;4.00;;
60076;SDS011;45950;45.208;20.374;2023-06-14T04:09:36;8.25;;;4.63;;
60076;SDS011;45950;45.208;20.374;2023-06-14T04:12:03;7.30;;;3.95;;
60076;SDS011;45950;45.208;20.374;2023-06-14T04:14:30;5.90;;;3.67;;
60076;SDS011;45950;45.208;20.374;2023-06-14T04:16:59;6.38;;;3.92;;
60076;SDS011;45950;45.208;20.374;2023-06-14T04:19:25;6.88;;;4.22;;
60076;SDS011;45950;45.208;20.374;2023-06-14T04:21:52;6.40;;;4.57;;
60076;SDS011;45950;45.208;20.374;2023-06-14T04:24:19;5.80;;;4.40;;
60076;SDS011;45950;45.208;20.374;2023-06-14T04:26:45;6.93;;;4.90;;
60076;SDS011;45950;45.208;20.374;2023-06-14T04:29:13;6.25;;;4.38;;
60076;SDS011;45950;45.208;20.374;2023-06-14T04:31:41;6.95;;;5.03;;
60076;SDS011;45950;45.208;20.374;2023-06-14T04:34:09;6.80;;;4.90;;
60076;SDS011;45950;45.208;20.374;2023-06-14T04:36:41;6.23;;;4.10;;
60076;SDS011;45950;45.208;20.374;2023-06-14T04:39:14;6.40;;;4.07;;
60076;SDS011;45950;45.208;20.374;2023-06-14T04:41:41;6.00;;;4.45;;
60076;SDS011;45950;45.208;20.374;2023-06-14T04:44:07;6.72;;;4.13;;
60076;SDS011;45950;45.208;20.374;2023-06-14T04:46:51;6.05;;;4.60;;
60076;SDS011;45950;45.208;20.374;2023-06-14T04:49:19;7.82;;;4.47;;
60076;SDS011;45950;45.208;20.374;2023-06-14T04:51:48;6.53;;;4.55;;
60076;SDS011;45950;45.208;20.374;2023-06-14T04:54:16;6.68;;;3.70;;
60076;SDS011;45950;45.208;20.374;2023-06-14T04:56:43;6.82;;;4.25;;
60076;SDS011;45950;45.208;20.374;2023-06-14T04:59:11;8.35;;;4.45;;
60076;SDS011;45950;45.208;20.374;2023-06-14T05:01:40;8.00;;;3.83;;
60076;SDS011;45950;45.208;20.374;2023-06-14T05:04:06;6.25;;;3.85;;
60076;SDS011;45950;45.208;20.374;2023-06-14T05:06:34;6.75;;;4.00;;
60076;SDS011;45950;45.208;20.374;2023-06-14T05:09:01;7.22;;;3.92;;
60076;SDS011;45950;45.208;20.374;2023-06-14T05:11:30;5.10;;;3.78;;
60076;SDS011;45950;45.208;20.374;2023-06-14T05:13:56;5.35;;;4.10;;
60076;SDS011;45950;45.208;20.374;2023-06-14T05:16:24;7.78;;;4.30;;
60076;SDS011;45950;45.208;20.374;2023-06-14T05:18:54;5.18;;;3.58;;
60076;SDS011;45950;45.208;20.374;2023-06-14T05:21:20;5.55;;;4.20;;
60076;SDS011;45950;45.208;20.374;2023-06-14T05:23:48;9.23;;;4.90;;
60076;SDS011;45950;45.208;20.374;2023-06-14T05:26:16;5.72;;;4.15;;
60076;SDS011;45950;45.208;20.374;2023-06-14T05:28:42;5.55;;;3.97;;
60076;SDS011;45950;45.208;20.374;2023-06-14T05:31:09;7.63;;;5.07;;
60076;SDS011;45950;45.208;20.374;2023-06-14T05:33:35;7.47;;;4.30;;
60076;SDS011;45950;45.208;20.374;2023-06-14T05:36:02;8.60;;;5.57;;
60076;SDS011;45950;45.208;20.374;2023-06-14T05:41:33;7.75;;;4.53;;
60076;SDS011;45950;45.208;20.374;2023-06-14T05:43:59;7.72;;;4.85;;
60076;SDS011;45950;45.208;20.374;2023-06-14T05:46:26;8.55;;;5.22;;
60076;SDS011;45950;45.208;20.374;2023-06-14T05:48:53;7.95;;;4.95;;
60076;SDS011;45950;45.208;20.374;2023-06-14T05:51:26;6.40;;;4.55;;
60076;SDS011;45950;45.208;20.374;2023-06-14T05:53:53;8.10;;;4.80;;
60076;SDS011;45950;45.208;20.374;2023-06-14T05:56:19;7.07;;;4.10;;
60076;SDS011;45950;45.208;20.374;2023-06-14T06:01:50;6.32;;;4.40;;
60076;SDS011;45950;45.208;20.374;2023-06-14T06:04:17;7.97;;;4.32;;
60076;SDS011;45950;45.208;20.374;2023-06-14T06:06:43;6.25;;;3.72;;
60076;SDS011;45950;45.208;20.374;2023-06-14T06:09:10;4.60;;;3.40;;
60076;SDS011;45950;45.208;20.374;2023-06-14T06:11:37;6.10;;;4.70;;
60076;SDS011;45950;45.208;20.374;2023-06-14T06:14:03;6.85;;;4.43;;
60076;SDS011;45950;45.208;20.374;2023-06-14T06:16:30;8.30;;;4.57;;
60076;SDS011;45950;45.208;20.374;2023-06-14T06:18:58;7.55;;;4.10;;
60076;SDS011;45950;45.208;20.374;2023-06-14T06:24:28;7.75;;;4.85;;
60076;SDS011;45950;45.208;20.374;2023-06-14T06:26:54;5.43;;;3.90;;
60076;SDS011;45950;45.208;20.374;2023-06-14T06:29:21;5.07;;;3.70;;
60076;SDS011;45950;45.208;20.374;2023-06-14T06:31:48;10.05;;;4.57;;
60076;SDS011;45950;45.208;20.374;2023-06-14T06:34:16;6.05;;;4.10;;
60076;SDS011;45950;45.208;20.374;2023-06-14T06:36:42;6.53;;;4.15;;
60076;SDS011;45950;45.208;20.374;2023-06-14T06:39:09;5.60;;;3.83;;
60076;SDS011;45950;45.208;20.374;2023-06-14T06:41:36;4.78;;;3.72;;
60076;SDS011;45950;45.208;20.374;2023-06-14T06:44:04;4.95;;;3.40;;
60076;SDS011;45950;45.208;20.374;2023-06-14T06:46:31;5.93;;;3.92;;
60076;SDS011;45950;45.208;20.374;2023-06-14T06:48:58;6.18;;;3.92;;
60076;SDS011;45950;45.208;20.374;2023-06-14T06:51:26;4.32;;;3.20;;
60076;SDS011;45950;45.208;20.374;2023-06-14T06:53:52;5.55;;;3.75;;
60076;SDS011;45950;45.208;20.374;2023-06-14T06:56:19;5.55;;;3.30;;
60076;SDS011;45950;45.208;20.374;2023-06-14T06:58:48;5.72;;;3.17;;
60076;SDS011;45950;45.208;20.374;2023-06-14T07:01:14;6.25;;;3.67;;
60076;SDS011;45950;45.208;20.374;2023-06-14T07:03:41;5.25;;;3.28;;
60076;SDS011;45950;45.208;20.374;2023-06-14T07:06:07;7.15;;;3.22;;
60076;SDS011;45950;45.208;20.374;2023-06-14T07:08:35;5.07;;;2.85;;
60076;SDS011;45950;45.208;20.374;2023-06-14T07:11:03;4.03;;;2.88;;
60076;SDS011;45950;45.208;20.374;2023-06-14T07:13:30;4.65;;;2.90;;
60076;SDS011;45950;45.208;20.374;2023-06-14T07:16:00;4.90;;;2.90;;
60076;SDS011;45950;45.208;20.374;2023-06-14T07:18:27;4.47;;;2.95;;
60076;SDS011;45950;45.208;20.374;2023-06-14T07:20:53;3.78;;;3.05;;
60076;SDS011;45950;45.208;20.374;2023-06-14T07:23:21;3.65;;;2.72;;
60076;SDS011;45950;45.208;20.374;2023-06-14T07:25:49;6.22;;;2.40;;
60076;SDS011;45950;45.208;20.374;2023-06-14T07:28:16;3.65;;;2.60;;
60076;SDS011;45950;45.208;20.374;2023-06-14T07:30:42;3.85;;;2.50;;
60076;SDS011;45950;45.208;20.374;2023-06-14T07:33:09;3.40;;;2.30;;
60076;SDS011;45950;45.208;20.374;2023-06-14T07:35:37;4.93;;;2.65;;
60076;SDS011;45950;45.208;20.374;2023-06-14T07:38:03;3.50;;;2.58;;
60076;SDS011;45950;45.208;20.374;2023-06-14T07:40:30;5.03;;;2.70;;
60076;SDS011;45950;45.208;20.374;2023-06-14T07:42:58;4.13;;;2.33;;
60076;SDS011;45950;45.208;20.374;2023-06-14T07:45:25;4.07;;;2.38;;
60076;SDS011;45950;45.208;20.374;2023-06-14T07:47:51;4.65;;;2.78;;
60076;SDS011;45950;45.208;20.374;2023-06-14T07:50:18;4.60;;;2.80;;
60076;SDS011;45950;45.208;20.374;2023-06-14T07:52:44;4.55;;;2.83;;
60076;SDS011;45950;45.208;20.374;2023-06-14T07:55:12;4.63;;;2.45;;
60076;SDS011;45950;45.208;20.374;2023-06-14T07:57:38;3.60;;;2.63;;
60076;SDS011;45950;45.208;20.374;2023-06-14T08:00:07;5.38;;;2.53;;
60076;SDS011;45950;45.208;20.374;2023-06-14T08:02:35;8.40;;;2.80;;
60076;SDS011;45950;45.208;20.374;2023-06-14T08:05:02;3.60;;;2.38;;
60076;SDS011;45950;45.208;20.374;2023-06-14T08:07:28;4.07;;;2.47;;
60076;SDS011;45950;45.208;20.374;2023-06-14T08:09:55;3.47;;;2.67;;
60076;SDS011;45950;45.208;20.374;2023-06-14T08:12:22;4.07;;;2.65;;
60076;SDS011;45950;45.208;20.374;2023-06-14T08:14:48;2.97;;;2.13;;
60076;SDS011;45950;45.208;20.374;2023-06-14T08:17:16;4.82;;;2.25;;
60076;SDS011;45950;45.208;20.374;2023-06-14T08:19:43;4.07;;;2.33;;
60076;SDS011;45950;45.208;20.374;2023-06-14T08:22:09;4.47;;;2.20;;
60076;SDS011;45950;45.208;20.374;2023-06-14T08:24:37;3.38;;;1.88;;
60076;SDS011;45950;45.208;20.374;2023-06-14T08:27:04;3.90;;;2.15;;
60076;SDS011;45950;45.208;20.374;2023-06-14T08:29:31;3.30;;;2.42;;
60076;SDS011;45950;45.208;20.374;2023-06-14T08:31:58;3.85;;;2.00;;
60076;SDS011;45950;45.208;20.374;2023-06-14T08:34:26;3.83;;;2.15;;
60076;SDS011;45950;45.208;20.374;2023-06-14T08:36:53;3.47;;;2.25;;
60076;SDS011;45950;45.208;20.374;2023-06-14T08:39:19;2.67;;;1.70;;
60076;SDS011;45950;45.208;20.374;2023-06-14T08:41:47;2.67;;;1.70;;
60076;SDS011;45950;45.208;20.374;2023-06-14T08:44:15;2.95;;;1.80;;
60076;SDS011;45950;45.208;20.374;2023-06-14T08:46:42;3.30;;;2.03;;
60076;SDS011;45950;45.208;20.374;2023-06-14T08:49:08;3.03;;;2.15;;
60076;SDS011;45950;45.208;20.374;2023-06-14T08:51:38;4.25;;;2.45;;
60076;SDS011;45950;45.208;20.374;2023-06-14T08:54:05;4.43;;;2.50;;
60076;SDS011;45950;45.208;20.374;2023-06-14T08:56:32;6.82;;;2.13;;
60076;SDS011;45950;45.208;20.374;2023-06-14T08:59:00;4.57;;;2.00;;
60076;SDS011;45950;45.208;20.374;2023-06-14T09:01:28;3.13;;;2.03;;
60076;SDS011;45950;45.208;20.374;2023-06-14T09:03:54;4.68;;;2.30;;
60076;SDS011;45950;45.208;20.374;2023-06-14T09:06:22;2.72;;;2.13;;
60076;SDS011;45950;45.208;20.374;2023-06-14T09:08:51;3.75;;;2.42;;
60076;SDS011;45950;45.208;20.374;2023-06-14T09:11:19;3.78;;;2.08;;
60076;SDS011;45950;45.208;20.374;2023-06-14T09:13:46;5.10;;;2.63;;
60076;SDS011;45950;45.208;20.374;2023-06-14T09:16:13;3.00;;;2.00;;
60076;SDS011;45950;45.208;20.374;2023-06-14T09:18:40;2.92;;;1.95;;
60076;SDS011;45950;45.208;20.374;2023-06-14T09:21:08;3.78;;;2.15;;
60076;SDS011;45950;45.208;20.374;2023-06-14T09:23:36;2.78;;;1.85;;
60076;SDS011;45950;45.208;20.374;2023-06-14T09:26:07;3.55;;;2.03;;
60076;SDS011;45950;45.208;20.374;2023-06-14T09:28:34;2.88;;;1.75;;
60076;SDS011;45950;45.208;20.374;2023-06-14T09:31:01;3.40;;;2.00;;
60076;SDS011;45950;45.208;20.374;2023-06-14T09:33:27;4.82;;;2.00;;
60076;SDS011;45950;45.208;20.374;2023-06-14T09:35:57;3.92;;;2.03;;
60076;SDS011;45950;45.208;20.374;2023-06-14T09:38:24;4.25;;;2.00;;
60076;SDS011;45950;45.208;20.374;2023-06-14T09:40:51;4.45;;;2.05;;
60076;SDS011;45950;45.208;20.374;2023-06-14T09:43:21;4.47;;;2.08;;
60076;SDS011;45950;45.208;20.374;2023-06-14T09:45:47;2.63;;;2.08;;
60076;SDS011;45950;45.208;20.374;2023-06-14T09:48:14;4.38;;;2.10;;
60076;SDS011;45950;45.208;20.374;2023-06-14T09:50:44;3.40;;;2.00;;
60076;SDS011;45950;45.208;20.374;2023-06-14T09:53:11;4.30;;;2.20;;
60076;SDS011;45950;45.208;20.374;2023-06-14T09:55:38;3.80;;;2.03;;
60076;SDS011;45950;45.208;20.374;2023-06-14T09:58:06;4.15;;;1.98;;
60076;SDS011;45950;45.208;20.374;2023-06-14T10:00:35;3.30;;;2.08;;
60076;SDS011;45950;45.208;20.374;2023-06-14T10:03:11;3.45;;;2.13;;
60076;SDS011;45950;45.208;20.374;2023-06-14T10:05:37;3.08;;;1.88;;
60076;SDS011;45950;45.208;20.374;2023-06-14T10:08:07;4.00;;;2.03;;
60076;SDS011;45950;45.208;20.374;2023-06-14T10:10:34;4.03;;;2.20;;
60076;SDS011;45950;45.208;20.374;2023-06-14T10:13:01;4.05;;;2.30;;
60076;SDS011;45950;45.208;20.374;2023-06-14T10:15:29;4.20;;;2.28;;
60076;SDS011;45950;45.208;20.374;2023-06-14T10:17:59;2.78;;;1.80;;
60076;SDS011;45950;45.208;20.374;2023-06-14T10:20:28;5.20;;;1.80;;
60076;SDS011;45950;45.208;20.374;2023-06-14T10:22:58;5.28;;;2.08;;
60076;SDS011;45950;45.208;20.374;2023-06-14T10:25:26;3.22;;;1.90;;
60076;SDS011;45950;45.208;20.374;2023-06-14T10:28:02;4.00;;;2.00;;
60076;SDS011;45950;45.208;20.374;2023-06-14T10:30:28;2.83;;;1.92;;
60076;SDS011;45950;45.208;20.374;2023-06-14T10:33:05;3.97;;;2.05;;
60076;SDS011;45950;45.208;20.374;2023-06-14T10:35:32;4.78;;;2.25;;
60076;SDS011;45950;45.208;20.374;2023-06-14T10:38:06;5.30;;;2.45;;
60076;SDS011;45950;45.208;20.374;2023-06-14T10:42:59;4.35;;;2.38;;
60076;SDS011;45950;45.208;20.374;2023-06-14T10:45:25;4.40;;;2.03;;
60076;SDS011;45950;45.208;20.374;2023-06-14T10:47:52;3.80;;;1.77;;
60076;SDS011;45950;45.208;20.374;2023-06-14T10:50:27;3.17;;;1.80;;
60076;SDS011;45950;45.208;20.374;2023-06-14T10:52:54;3.80;;;2.15;;
60076;SDS011;45950;45.208;20.374;2023-06-14T10:55:21;3.30;;;2.20;;
60076;SDS011;45950;45.208;20.374;2023-06-14T10:57:48;4.20;;;2.22;;
60076;SDS011;45950;45.208;20.374;2023-06-14T11:00:17;3.20;;;2.20;;
60076;SDS011;45950;45.208;20.374;2023-06-14T11:02:51;2.60;;;1.95;;
60076;SDS011;45950;45.208;20.374;2023-06-14T11:05:23;4.90;;;2.55;;
60076;SDS011;45950;45.208;20.374;2023-06-14T11:07:55;4.43;;;2.40;;
60076;SDS011;45950;45.208;20.374;2023-06-14T11:10:26;3.20;;;2.20;;
60076;SDS011;45950;45.208;20.374;2023-06-14T11:13:10;3.55;;;2.30;;
60076;SDS011;45950;45.208;20.374;2023-06-14T11:15:37;3.30;;;2.30;;
60076;SDS011;45950;45.208;20.374;2023-06-14T11:18:04;4.07;;;2.60;;
60076;SDS011;45950;45.208;20.374;2023-06-14T11:20:42;5.47;;;2.47;;
60076;SDS011;45950;45.208;20.374;2023-06-14T11:23:08;3.80;;;2.50;;
60076;SDS011;45950;45.208;20.374;2023-06-14T11:25:35;3.50;;;2.30;;
60076;SDS011;45950;45.208;20.374;2023-06-14T11:31:05;3.75;;;2.17;;
60076;SDS011;45950;45.208;20.374;2023-06-14T11:33:32;2.67;;;1.95;;
60076;SDS011;45950;45.208;20.374;2023-06-14T11:36:01;4.05;;;2.20;;
60076;SDS011;45950;45.208;20.374;2023-06-14T11:38:27;3.47;;;2.50;;
60076;SDS011;45950;45.208;20.374;2023-06-14T11:40:58;5.78;;;2.45;;
60076;SDS011;45950;45.208;20.374;2023-06-14T11:43:25;3.13;;;2.30;;
60076;SDS011;45950;45.208;20.374;2023-06-14T11:45:52;3.22;;;2.33;;
60076;SDS011;45950;45.208;20.374;2023-06-14T11:48:19;3.20;;;1.92;;
60076;SDS011;45950;45.208;20.374;2023-06-14T11:50:49;3.40;;;2.42;;
60076;SDS011;45950;45.208;20.374;2023-06-14T11:53:17;3.53;;;2.45;;
60076;SDS011;45950;45.208;20.374;2023-06-14T11:55:44;3.83;;;2.70;;
60076;SDS011;45950;45.208;20.374;2023-06-14T11:58:12;4.90;;;2.60;;
60076;SDS011;45950;45.208;20.374;2023-06-14T12:00:39;3.95;;;3.08;;
60076;SDS011;45950;45.208;20.374;2023-06-14T12:03:07;4.45;;;2.83;;
60076;SDS011;45950;45.208;20.374;2023-06-14T12:05:33;5.57;;;2.97;;
60076;SDS011;45950;45.208;20.374;2023-06-14T12:08:01;3.65;;;2.50;;
60076;SDS011;45950;45.208;20.374;2023-06-14T12:10:29;3.35;;;2.63;;
60076;SDS011;45950;45.208;20.374;2023-06-14T12:12:56;9.32;;;2.92;;
60076;SDS011;45950;45.208;20.374;2023-06-14T12:15:23;4.00;;;3.13;;
60076;SDS011;45950;45.208;20.374;2023-06-14T12:17:50;4.03;;;2.80;;
60076;SDS011;45950;45.208;20.374;2023-06-14T12:20:17;4.70;;;2.70;;
60076;SDS011;45950;45.208;20.374;2023-06-14T12:25:50;3.92;;;3.00;;
60076;SDS011;45950;45.208;20.374;2023-06-14T12:28:17;4.50;;;2.72;;
60076;SDS011;45950;45.208;20.374;2023-06-14T12:30:43;5.00;;;3.13;;
60076;SDS011;45950;45.208;20.374;2023-06-14T12:33:10;4.30;;;2.90;;
60076;SDS011;45950;45.208;20.374;2023-06-14T12:35:37;4.13;;;2.67;;
60076;SDS011;45950;45.208;20.374;2023-06-14T12:38:03;4.18;;;2.78;;
60076;SDS011;45950;45.208;20.374;2023-06-14T12:40:30;3.53;;;2.30;;
60076;SDS011;45950;45.208;20.374;2023-06-14T12:42:58;3.70;;;2.55;;
60076;SDS011;45950;45.208;20.374;2023-06-14T12:45:25;4.28;;;2.63;;
60076;SDS011;45950;45.208;20.374;2023-06-14T12:47:51;4.80;;;2.80;;
60076;SDS011;45950;45.208;20.374;2023-06-14T12:53:19;3.60;;;2.53;;
60076;SDS011;45950;45.208;20.374;2023-06-14T12:55:46;4.50;;;2.42;;
60076;SDS011;45950;45.208;20.374;2023-06-14T12:58:14;4.20;;;2.60;;
60076;SDS011;45950;45.208;20.374;2023-06-14T13:00:42;5.18;;;2.83;;
60076;SDS011;45950;45.208;20.374;2023-06-14T13:03:09;3.67;;;2.70;;
60076;SDS011;45950;45.208;20.374;2023-06-14T13:05:36;4.55;;;2.30;;
60076;SDS011;45950;45.208;20.374;2023-06-14T13:08:05;3.40;;;2.38;;
60076;SDS011;45950;45.208;20.374;2023-06-14T13:13:37;3.08;;;2.20;;
60076;SDS011;45950;45.208;20.374;2023-06-14T13:16:03;4.97;;;2.22;;
60076;SDS011;45950;45.208;20.374;2023-06-14T13:18:30;3.47;;;2.50;;
60076;SDS011;45950;45.208;20.374;2023-06-14T13:20:57;4.20;;;2.42;;
60076;SDS011;45950;45.208;20.374;2023-06-14T13:23:23;3.95;;;2.65;;
60076;SDS011;45950;45.208;20.374;2023-06-14T13:25:50;7.60;;;2.65;;
60076;SDS011;45950;45.208;20.374;2023-06-14T13:28:17;3.30;;;2.33;;
60076;SDS011;45950;45.208;20.374;2023-06-14T13:30:45;6.57;;;2.38;;
60076;SDS011;45950;45.208;20.374;2023-06-14T13:33:12;2.70;;;2.22;;
60076;SDS011;45950;45.208;20.374;2023-06-14T13:35:39;2.60;;;1.75;;
60076;SDS011;45950;45.208;20.374;2023-06-14T13:38:05;4.45;;;2.60;;
60076;SDS011;45950;45.208;20.374;2023-06-14T13:40:32;4.53;;;2.28;;
60076;SDS011;45950;45.208;20.374;2023-06-14T13:42:58;4.03;;;2.30;;
60076;SDS011;45950;45.208;20.374;2023-06-14T13:48:30;3.35;;;2.08;;
60076;SDS011;45950;45.208;20.374;2023-06-14T13:50:59;4.50;;;2.15;;
60076;SDS011;45950;45.208;20.374;2023-06-14T13:53:25;4.18;;;2.60;;
60076;SDS011;45950;45.208;20.374;2023-06-14T13:55:58;4.75;;;2.63;;
60076;SDS011;45950;45.208;20.374;2023-06-14T13:58:25;2.83;;;2.30;;
60076;SDS011;45950;45.208;20.374;2023-06-14T14:00:51;3.28;;;2.25;;
60076;SDS011;45950;45.208;20.374;2023-06-14T14:03:33;3.88;;;2.25;;
60076;SDS011;45950;45.208;20.374;2023-06-14T14:06:00;5.10;;;2.50;;
60076;SDS011;45950;45.208;20.374;2023-06-14T14:08:28;4.15;;;2.50;;
60076;SDS011;45950;45.208;20.374;2023-06-14T14:11:06;4.47;;;2.70;;
60076;SDS011;45950;45.208;20.374;2023-06-14T14:13:32;2.85;;;2.13;;
60076;SDS011;45950;45.208;20.374;2023-06-14T14:16:01;4.55;;;2.88;;
60076;SDS011;45950;45.208;20.374;2023-06-14T14:18:27;4.53;;;2.55;;
60076;SDS011;45950;45.208;20.374;2023-06-14T14:20:55;3.20;;;2.17;;
60076;SDS011;45950;45.208;20.374;2023-06-14T14:23:22;4.68;;;2.30;;
60076;SDS011;45950;45.208;20.374;2023-06-14T14:25:49;2.88;;;2.10;;
60076;SDS011;45950;45.208;20.374;2023-06-14T14:28:15;3.45;;;2.28;;
60076;SDS011;45950;45.208;20.374;2023-06-14T14:30:44;5.15;;;2.40;;
60076;SDS011;45950;45.208;20.374;2023-06-14T14:33:12;5.05;;;2.40;;
60076;SDS011;45950;45.208;20.374;2023-06-14T14:35:41;3.72;;;2.50;;
60076;SDS011;45950;45.208;20.374;2023-06-14T14:38:11;4.32;;;2.38;;
60076;SDS011;45950;45.208;20.374;2023-06-14T14:40:37;6.88;;;2.75;;
60076;SDS011;45950;45.208;20.374;2023-06-14T14:43:04;3.15;;;2.30;;
60076;SDS011;45950;45.208;20.374;2023-06-14T14:45:30;3.83;;;2.53;;
60076;SDS011;45950;45.208;20.374;2023-06-14T14:47:57;3.13;;;2.30;;
60076;SDS011;45950;45.208;20.374;2023-06-14T14:53:15;3.55;;;2.40;;
60076;SDS011;45950;45.208;20.374;2023-06-14T14:55:42;5.32;;;2.10;;
60076;SDS011;45950;45.208;20.374;2023-06-14T14:58:09;2.60;;;1.90;;
60076;SDS011;45950;45.208;20.374;2023-06-14T15:00:35;4.72;;;2.30;;
60076;SDS011;45950;45.208;20.374;2023-06-14T15:03:02;4.18;;;2.08;;
60076;SDS011;45950;45.208;20.374;2023-06-14T15:05:29;6.07;;;2.30;;